Mahres, Tunisia
Current Conditions -  °F | °C
As of 7:00 AM on Saturday 25 Oct 2014 (Local Time) from DTTX Reporting Station
Few Clouds Few Clouds  
Wind Chill: 59°   Ceiling: Unl
Heat Index: 59°   Visibility: 6mi
Dew Point: 48°   Wind: 6mph
Humidity: 67%   Direction: 300°WNW
Pressure: 30.06"   Gusts: NA
Location:  34.53°N, 10.5°E
Report Text: DTTX 250600Z 30005KT 280V340 9999 FEW030 15/09 Q1018 NOSIG
Loading
Personal Weather Stations






























Interactive Weather Map
Tropical Storm Tracking
New forecast layout! Learn more

10-Day Weather Forecast

Advertisements
Track Severe Weather on mobile